sensor_id;sensor_type;location;lat;lon;timestamp;P1;durP1;ratioP1;P2;durP2;ratioP2
11642;SDS011;5877;50.930;6.918;2023-06-10T05:09:31;6.97;;;6.18;;
11642;SDS011;5877;50.930;6.918;2023-06-10T05:14:26;6.93;;;6.22;;
11642;SDS011;5877;50.930;6.918;2023-06-10T05:19:19;7.32;;;6.03;;
11642;SDS011;5877;50.930;6.918;2023-06-10T05:24:11;6.88;;;5.22;;
11642;SDS011;5877;50.930;6.918;2023-06-10T05:29:03;5.45;;;4.95;;
11642;SDS011;5877;50.930;6.918;2023-06-10T05:33:57;7.10;;;5.37;;
11642;SDS011;5877;50.930;6.918;2023-06-10T05:38:51;5.50;;;4.90;;
11642;SDS011;5877;50.930;6.918;2023-06-10T05:43:43;5.38;;;4.68;;
11642;SDS011;5877;50.930;6.918;2023-06-10T05:48:36;5.53;;;4.50;;
11642;SDS011;5877;50.930;6.918;2023-06-10T05:53:28;6.70;;;5.00;;
11642;SDS011;5877;50.930;6.918;2023-06-10T05:58:20;5.45;;;4.80;;
11642;SDS011;5877;50.930;6.918;2023-06-10T06:03:13;5.57;;;5.00;;
11642;SDS011;5877;50.930;6.918;2023-06-10T06:08:07;7.63;;;5.20;;
11642;SDS011;5877;50.930;6.918;2023-06-10T06:13:01;6.43;;;4.50;;
11642;SDS011;5877;50.930;6.918;2023-06-10T06:17:54;6.43;;;4.28;;
11642;SDS011;5877;50.930;6.918;2023-06-10T06:22:47;6.97;;;4.50;;
11642;SDS011;5877;50.930;6.918;2023-06-10T06:27:40;4.87;;;4.37;;
11642;SDS011;5877;50.930;6.918;2023-06-10T06:32:32;5.00;;;4.00;;
11642;SDS011;5877;50.930;6.918;2023-06-10T06:37:24;4.60;;;4.07;;
11642;SDS011;5877;50.930;6.918;2023-06-10T06:42:31;5.13;;;4.25;;
11642;SDS011;5877;50.930;6.918;2023-06-10T06:47:28;4.88;;;4.13;;
11642;SDS011;5877;50.930;6.918;2023-06-10T06:52:24;4.53;;;4.13;;
11642;SDS011;5877;50.930;6.918;2023-06-10T06:57:17;6.03;;;4.00;;
11642;SDS011;5877;50.930;6.918;2023-06-10T07:02:10;4.93;;;4.25;;
11642;SDS011;5877;50.930;6.918;2023-06-10T07:07:02;4.83;;;4.10;;
11642;SDS011;5877;50.930;6.918;2023-06-10T07:11:55;4.65;;;3.92;;
11642;SDS011;5877;50.930;6.918;2023-06-10T07:16:49;5.57;;;4.13;;
11642;SDS011;5877;50.930;6.918;2023-06-10T07:21:42;6.47;;;4.18;;
11642;SDS011;5877;50.930;6.918;2023-06-10T07:26:34;4.80;;;3.90;;
11642;SDS011;5877;50.930;6.918;2023-06-10T07:31:26;6.55;;;4.28;;
11642;SDS011;5877;50.930;6.918;2023-06-10T07:36:18;4.80;;;4.30;;
11642;SDS011;5877;50.930;6.918;2023-06-10T07:41:10;4.38;;;3.70;;
11642;SDS011;5877;50.930;6.918;2023-06-10T07:46:03;4.97;;;4.10;;
11642;SDS011;5877;50.930;6.918;2023-06-10T07:50:56;4.10;;;3.70;;
11642;SDS011;5877;50.930;6.918;2023-06-10T07:55:48;4.15;;;3.72;;
11642;SDS011;5877;50.930;6.918;2023-06-10T08:00:40;4.28;;;3.58;;
11642;SDS011;5877;50.930;6.918;2023-06-10T08:05:33;8.75;;;4.00;;
11642;SDS011;5877;50.930;6.918;2023-06-10T08:10:26;4.72;;;4.22;;
11642;SDS011;5877;50.930;6.918;2023-06-10T08:15:18;4.15;;;3.83;;
11642;SDS011;5877;50.930;6.918;2023-06-10T08:20:10;4.75;;;4.35;;
11642;SDS011;5877;50.930;6.918;2023-06-10T08:25:02;5.97;;;4.00;;
11642;SDS011;5877;50.930;6.918;2023-06-10T08:30:00;4.72;;;4.32;;
11642;SDS011;5877;50.930;6.918;2023-06-10T08:34:53;4.80;;;4.40;;
11642;SDS011;5877;50.930;6.918;2023-06-10T08:39:47;4.68;;;4.18;;
11642;SDS011;5877;50.930;6.918;2023-06-10T08:44:39;4.80;;;4.20;;
11642;SDS011;5877;50.930;6.918;2023-06-10T08:49:32;4.95;;;4.45;;
11642;SDS011;5877;50.930;6.918;2023-06-10T08:54:33;4.63;;;4.15;;
11642;SDS011;5877;50.930;6.918;2023-06-10T08:59:29;5.57;;;4.90;;
11642;SDS011;5877;50.930;6.918;2023-06-10T09:04:22;5.03;;;4.63;;
11642;SDS011;5877;50.930;6.918;2023-06-10T09:09:16;8.00;;;4.57;;
11642;SDS011;5877;50.930;6.918;2023-06-10T09:14:10;5.10;;;4.32;;
11642;SDS011;5877;50.930;6.918;2023-06-10T09:19:04;5.10;;;4.70;;
11642;SDS011;5877;50.930;6.918;2023-06-10T09:24:05;6.50;;;4.30;;
11642;SDS011;5877;50.930;6.918;2023-06-10T09:29:06;7.38;;;4.78;;
11642;SDS011;5877;50.930;6.918;2023-06-10T09:39:03;6.43;;;5.10;;
11642;SDS011;5877;50.930;6.918;2023-06-10T09:43:59;5.90;;;5.20;;
11642;SDS011;5877;50.930;6.918;2023-06-10T09:48:53;7.28;;;5.00;;
11642;SDS011;5877;50.930;6.918;2023-06-10T09:53:49;5.55;;;5.03;;
11642;SDS011;5877;50.930;6.918;2023-06-10T16:13:18;6.43;;;3.60;;
11642;SDS011;5877;50.930;6.918;2023-06-10T16:18:10;4.73;;;3.60;;
11642;SDS011;5877;50.930;6.918;2023-06-10T16:23:04;4.90;;;4.37;;
11642;SDS011;5877;50.930;6.918;2023-06-10T16:27:58;4.30;;;3.67;;
11642;SDS011;5877;50.930;6.918;2023-06-10T16:32:50;3.83;;;3.53;;
11642;SDS011;5877;50.930;6.918;2023-06-10T16:37:43;3.80;;;3.50;;
11642;SDS011;5877;50.930;6.918;2023-06-10T16:42:35;6.23;;;3.50;;
11642;SDS011;5877;50.930;6.918;2023-06-10T16:47:29;5.10;;;4.07;;
11642;SDS011;5877;50.930;6.918;2023-06-10T16:52:21;4.97;;;4.47;;
11642;SDS011;5877;50.930;6.918;2023-06-10T16:57:13;5.93;;;4.00;;
11642;SDS011;5877;50.930;6.918;2023-06-10T17:02:06;4.50;;;3.80;;
11642;SDS011;5877;50.930;6.918;2023-06-10T17:06:58;5.43;;;4.27;;
11642;SDS011;5877;50.930;6.918;2023-06-10T17:11:50;4.70;;;4.17;;
11642;SDS011;5877;50.930;6.918;2023-06-10T17:16:43;5.40;;;4.10;;
11642;SDS011;5877;50.930;6.918;2023-06-10T17:21:35;4.90;;;4.00;;
11642;SDS011;5877;50.930;6.918;2023-06-10T17:26:28;4.57;;;4.13;;
11642;SDS011;5877;50.930;6.918;2023-06-10T17:31:20;5.83;;;4.47;;
11642;SDS011;5877;50.930;6.918;2023-06-10T17:36:15;5.20;;;4.37;;
11642;SDS011;5877;50.930;6.918;2023-06-10T17:41:07;7.68;;;4.80;;
11642;SDS011;5877;50.930;6.918;2023-06-10T17:46:00;6.43;;;4.85;;
11642;SDS011;5877;50.930;6.918;2023-06-10T17:50:52;5.38;;;4.70;;
11642;SDS011;5877;50.930;6.918;2023-06-10T17:55:47;5.53;;;4.25;;
11642;SDS011;5877;50.930;6.918;2023-06-10T18:00:39;4.80;;;4.30;;
11642;SDS011;5877;50.930;6.918;2023-06-10T18:05:59;6.23;;;5.00;;
11642;SDS011;5877;50.930;6.918;2023-06-10T18:10:52;7.63;;;5.47;;
11642;SDS011;5877;50.930;6.918;2023-06-10T18:15:44;5.95;;;4.72;;
11642;SDS011;5877;50.930;6.918;2023-06-10T18:20:36;7.72;;;4.93;;
11642;SDS011;5877;50.930;6.918;2023-06-10T18:25:29;6.65;;;4.85;;
11642;SDS011;5877;50.930;6.918;2023-06-10T18:30:22;5.70;;;4.93;;
11642;SDS011;5877;50.930;6.918;2023-06-10T18:35:15;6.90;;;5.00;;
11642;SDS011;5877;50.930;6.918;2023-06-10T18:40:08;6.00;;;5.20;;
11642;SDS011;5877;50.930;6.918;2023-06-10T18:45:02;6.78;;;5.13;;
11642;SDS011;5877;50.930;6.918;2023-06-10T18:49:55;8.40;;;5.05;;
11642;SDS011;5877;50.930;6.918;2023-06-10T18:54:47;6.13;;;4.80;;
11642;SDS011;5877;50.930;6.918;2023-06-10T18:59:40;5.80;;;5.23;;
11642;SDS011;5877;50.930;6.918;2023-06-10T19:04:33;6.23;;;5.17;;
11642;SDS011;5877;50.930;6.918;2023-06-10T19:09:25;7.43;;;5.90;;
11642;SDS011;5877;50.930;6.918;2023-06-10T19:14:17;6.60;;;5.93;;
11642;SDS011;5877;50.930;6.918;2023-06-10T19:19:10;6.50;;;5.90;;
11642;SDS011;5877;50.930;6.918;2023-06-10T19:24:02;6.55;;;5.50;;
11642;SDS011;5877;50.930;6.918;2023-06-10T19:28:55;6.78;;;5.55;;
11642;SDS011;5877;50.930;6.918;2023-06-10T19:33:47;6.03;;;5.20;;
11642;SDS011;5877;50.930;6.918;2023-06-10T19:38:41;6.87;;;4.90;;
11642;SDS011;5877;50.930;6.918;2023-06-10T19:43:33;6.20;;;5.00;;
11642;SDS011;5877;50.930;6.918;2023-06-10T19:48:26;5.80;;;4.90;;
11642;SDS011;5877;50.930;6.918;2023-06-10T19:53:20;7.17;;;4.93;;
11642;SDS011;5877;50.930;6.918;2023-06-10T19:58:12;6.47;;;5.20;;
11642;SDS011;5877;50.930;6.918;2023-06-10T20:03:04;7.60;;;5.13;;
11642;SDS011;5877;50.930;6.918;2023-06-10T20:07:57;9.23;;;5.27;;
11642;SDS011;5877;50.930;6.918;2023-06-10T20:12:49;6.83;;;5.20;;
11642;SDS011;5877;50.930;6.918;2023-06-10T20:17:43;5.97;;;5.37;;
11642;SDS011;5877;50.930;6.918;2023-06-10T20:22:37;8.30;;;5.07;;
11642;SDS011;5877;50.930;6.918;2023-06-10T20:27:31;6.93;;;5.80;;
11642;SDS011;5877;50.930;6.918;2023-06-10T20:32:23;5.53;;;5.03;;
11642;SDS011;5877;50.930;6.918;2023-06-10T20:37:16;6.47;;;5.57;;
11642;SDS011;5877;50.930;6.918;2023-06-10T20:42:09;5.63;;;5.10;;
11642;SDS011;5877;50.930;6.918;2023-06-10T20:47:04;6.60;;;4.83;;
11642;SDS011;5877;50.930;6.918;2023-06-10T20:51:58;7.90;;;5.23;;
11642;SDS011;5877;50.930;6.918;2023-06-10T20:56:52;5.97;;;5.33;;
11642;SDS011;5877;50.930;6.918;2023-06-10T21:01:48;6.83;;;5.47;;
11642;SDS011;5877;50.930;6.918;2023-06-10T21:06:41;6.27;;;5.10;;
11642;SDS011;5877;50.930;6.918;2023-06-10T21:11:34;6.27;;;5.40;;
11642;SDS011;5877;50.930;6.918;2023-06-10T21:16:26;6.57;;;5.90;;
11642;SDS011;5877;50.930;6.918;2023-06-10T21:21:22;6.70;;;6.00;;
11642;SDS011;5877;50.930;6.918;2023-06-10T21:26:15;6.60;;;5.50;;
11642;SDS011;5877;50.930;6.918;2023-06-10T21:31:07;7.80;;;6.13;;
11642;SDS011;5877;50.930;6.918;2023-06-10T21:36:00;5.80;;;5.30;;
11642;SDS011;5877;50.930;6.918;2023-06-10T21:40:53;7.83;;;5.77;;
11642;SDS011;5877;50.930;6.918;2023-06-10T21:45:49;7.10;;;5.87;;
11642;SDS011;5877;50.930;6.918;2023-06-10T21:50:41;9.40;;;5.77;;
11642;SDS011;5877;50.930;6.918;2023-06-10T21:55:34;6.43;;;5.73;;
11642;SDS011;5877;50.930;6.918;2023-06-10T22:00:26;7.50;;;5.70;;
11642;SDS011;5877;50.930;6.918;2023-06-10T22:05:18;7.63;;;6.23;;
11642;SDS011;5877;50.930;6.918;2023-06-10T22:10:10;7.80;;;5.83;;
11642;SDS011;5877;50.930;6.918;2023-06-10T22:15:03;7.47;;;5.50;;
11642;SDS011;5877;50.930;6.918;2023-06-10T22:19:55;7.30;;;5.90;;
11642;SDS011;5877;50.930;6.918;2023-06-10T22:24:53;7.57;;;5.80;;
11642;SDS011;5877;50.930;6.918;2023-06-10T22:29:49;8.10;;;5.50;;
11642;SDS011;5877;50.930;6.918;2023-06-10T22:34:43;7.40;;;5.80;;
11642;SDS011;5877;50.930;6.918;2023-06-10T22:39:35;6.70;;;5.80;;
11642;SDS011;5877;50.930;6.918;2023-06-10T22:44:29;8.23;;;5.77;;
11642;SDS011;5877;50.930;6.918;2023-06-10T22:49:21;6.70;;;5.90;;
11642;SDS011;5877;50.930;6.918;2023-06-10T22:54:14;8.43;;;6.10;;
11642;SDS011;5877;50.930;6.918;2023-06-10T22:59:06;7.63;;;6.10;;
11642;SDS011;5877;50.930;6.918;2023-06-10T23:03:59;7.97;;;5.70;;
11642;SDS011;5877;50.930;6.918;2023-06-10T23:08:51;6.93;;;6.10;;
11642;SDS011;5877;50.930;6.918;2023-06-10T23:13:43;7.03;;;5.83;;
11642;SDS011;5877;50.930;6.918;2023-06-10T23:18:36;6.80;;;6.10;;
11642;SDS011;5877;50.930;6.918;2023-06-10T23:23:31;8.20;;;6.10;;
11642;SDS011;5877;50.930;6.918;2023-06-10T23:28:29;7.63;;;6.40;;
11642;SDS011;5877;50.930;6.918;2023-06-10T23:33:24;8.87;;;5.77;;
11642;SDS011;5877;50.930;6.918;2023-06-10T23:38:19;6.87;;;6.23;;
11642;SDS011;5877;50.930;6.918;2023-06-10T23:43:12;6.87;;;5.80;;
11642;SDS011;5877;50.930;6.918;2023-06-10T23:48:05;5.60;;;5.10;;
11642;SDS011;5877;50.930;6.918;2023-06-10T23:52:57;6.53;;;5.87;;
11642;SDS011;5877;50.930;6.918;2023-06-10T23:57:50;7.77;;;5.63;;
